Terminal Aerodrome Forecast
Issued by NWS

Current Version | Previous Version | Text Only | Print | Product List | Glossary Off
Versions: 1 2 3 4 5 6 7 8 9 10 11 12 13 14 15

000
FTUS44 KSJT 310500
TAFBBD
TAF
KBBD 310520Z 3106/0106 17007KT P6SM BKN250
     FM310900 18007KT P6SM OVC015
     FM311600 18012KT P6SM SCT150 BKN250
     FM010100 17007KT P6SM OVC250=

USA.gov is the U.S. government's official web portal to all federal, state and local government web resources and services.